sensor_id;sensor_type;location;lat;lon;timestamp;P1;durP1;ratioP1;P2;durP2;ratioP2
77430;SDS011;66498;48.564;19.272;2023-06-22T00:02:15;19.15;;;11.43;;
77430;SDS011;66498;48.564;19.272;2023-06-22T00:04:40;18.50;;;10.80;;
77430;SDS011;66498;48.564;19.272;2023-06-22T00:07:07;19.67;;;10.60;;
77430;SDS011;66498;48.564;19.272;2023-06-22T00:09:33;16.65;;;10.25;;
77430;SDS011;66498;48.564;19.272;2023-06-22T00:11:59;17.13;;;10.57;;
77430;SDS011;66498;48.564;19.272;2023-06-22T00:14:24;19.80;;;10.18;;
77430;SDS011;66498;48.564;19.272;2023-06-22T00:16:50;18.48;;;11.32;;
77430;SDS011;66498;48.564;19.272;2023-06-22T00:19:20;19.50;;;11.52;;
77430;SDS011;66498;48.564;19.272;2023-06-22T00:21:47;18.80;;;11.82;;
77430;SDS011;66498;48.564;19.272;2023-06-22T00:24:13;18.85;;;11.90;;
77430;SDS011;66498;48.564;19.272;2023-06-22T00:26:38;17.75;;;11.88;;
77430;SDS011;66498;48.564;19.272;2023-06-22T00:29:04;19.48;;;11.45;;
77430;SDS011;66498;48.564;19.272;2023-06-22T00:31:29;18.55;;;10.90;;
77430;SDS011;66498;48.564;19.272;2023-06-22T00:33:55;17.30;;;11.13;;
77430;SDS011;66498;48.564;19.272;2023-06-22T00:36:20;17.88;;;11.85;;
77430;SDS011;66498;48.564;19.272;2023-06-22T00:38:46;17.83;;;12.40;;
77430;SDS011;66498;48.564;19.272;2023-06-22T00:41:11;18.98;;;11.27;;
77430;SDS011;66498;48.564;19.272;2023-06-22T00:43:37;17.33;;;12.15;;
77430;SDS011;66498;48.564;19.272;2023-06-22T00:46:02;14.90;;;11.30;;
77430;SDS011;66498;48.564;19.272;2023-06-22T00:48:28;18.08;;;10.82;;
77430;SDS011;66498;48.564;19.272;2023-06-22T00:50:53;18.27;;;9.23;;
77430;SDS011;66498;48.564;19.272;2023-06-22T00:53:20;15.82;;;7.85;;
77430;SDS011;66498;48.564;19.272;2023-06-22T00:55:46;15.43;;;7.45;;
77430;SDS011;66498;48.564;19.272;2023-06-22T00:58:16;16.50;;;7.93;;
77430;SDS011;66498;48.564;19.272;2023-06-22T01:00:42;15.70;;;7.20;;
77430;SDS011;66498;48.564;19.272;2023-06-22T01:03:07;9.52;;;6.10;;
77430;SDS011;66498;48.564;19.272;2023-06-22T01:05:34;9.93;;;6.20;;
77430;SDS011;66498;48.564;19.272;2023-06-22T01:08:04;10.95;;;6.10;;
77430;SDS011;66498;48.564;19.272;2023-06-22T01:10:55;13.10;;;7.28;;
77430;SDS011;66498;48.564;19.272;2023-06-22T01:16:20;13.32;;;8.25;;
77430;SDS011;66498;48.564;19.272;2023-06-22T01:18:50;13.25;;;8.60;;
77430;SDS011;66498;48.564;19.272;2023-06-22T01:21:20;16.15;;;11.07;;
77430;SDS011;66498;48.564;19.272;2023-06-22T01:29:36;19.95;;;14.30;;
77430;SDS011;66498;48.564;19.272;2023-06-22T01:32:04;21.08;;;15.27;;
77430;SDS011;66498;48.564;19.272;2023-06-22T01:34:31;21.10;;;13.55;;
77430;SDS011;66498;48.564;19.272;2023-06-22T01:36:58;20.13;;;13.30;;
77430;SDS011;66498;48.564;19.272;2023-06-22T01:39:25;20.08;;;13.23;;
77430;SDS011;66498;48.564;19.272;2023-06-22T01:41:51;21.00;;;14.13;;
77430;SDS011;66498;48.564;19.272;2023-06-22T01:44:18;19.75;;;13.68;;
77430;SDS011;66498;48.564;19.272;2023-06-22T01:46:44;21.75;;;12.75;;
77430;SDS011;66498;48.564;19.272;2023-06-22T01:49:10;17.58;;;11.57;;
77430;SDS011;66498;48.564;19.272;2023-06-22T01:51:36;17.10;;;12.38;;
77430;SDS011;66498;48.564;19.272;2023-06-22T01:54:01;20.50;;;12.68;;
77430;SDS011;66498;48.564;19.272;2023-06-22T01:56:28;20.27;;;12.75;;
77430;SDS011;66498;48.564;19.272;2023-06-22T01:59:14;18.05;;;11.95;;
77430;SDS011;66498;48.564;19.272;2023-06-22T02:01:54;19.10;;;11.88;;
77430;SDS011;66498;48.564;19.272;2023-06-22T02:04:27;16.30;;;11.63;;
77430;SDS011;66498;48.564;19.272;2023-06-22T02:07:03;20.88;;;12.00;;
77430;SDS011;66498;48.564;19.272;2023-06-22T02:09:34;18.08;;;11.02;;
77430;SDS011;66498;48.564;19.272;2023-06-22T02:12:02;22.52;;;11.73;;
77430;SDS011;66498;48.564;19.272;2023-06-22T02:14:29;17.48;;;11.65;;
77430;SDS011;66498;48.564;19.272;2023-06-22T02:16:55;20.75;;;11.57;;
77430;SDS011;66498;48.564;19.272;2023-06-22T02:19:23;23.05;;;11.50;;
77430;SDS011;66498;48.564;19.272;2023-06-22T02:21:49;18.38;;;12.15;;
77430;SDS011;66498;48.564;19.272;2023-06-22T02:24:15;24.55;;;13.25;;
77430;SDS011;66498;48.564;19.272;2023-06-22T02:26:40;21.05;;;12.68;;
77430;SDS011;66498;48.564;19.272;2023-06-22T02:29:08;19.20;;;13.95;;
77430;SDS011;66498;48.564;19.272;2023-06-22T02:31:33;22.90;;;14.77;;
77430;SDS011;66498;48.564;19.272;2023-06-22T02:33:59;22.00;;;14.10;;
77430;SDS011;66498;48.564;19.272;2023-06-22T02:36:25;19.02;;;14.48;;
77430;SDS011;66498;48.564;19.272;2023-06-22T02:38:52;19.10;;;14.32;;
77430;SDS011;66498;48.564;19.272;2023-06-22T02:41:19;25.30;;;15.68;;
77430;SDS011;66498;48.564;19.272;2023-06-22T02:43:45;22.48;;;14.80;;
77430;SDS011;66498;48.564;19.272;2023-06-22T02:46:11;24.83;;;15.95;;
77430;SDS011;66498;48.564;19.272;2023-06-22T02:48:38;23.80;;;16.63;;
77430;SDS011;66498;48.564;19.272;2023-06-22T02:51:06;27.60;;;16.25;;
77430;SDS011;66498;48.564;19.272;2023-06-22T02:53:32;22.98;;;15.63;;
77430;SDS011;66498;48.564;19.272;2023-06-22T02:55:58;21.98;;;13.55;;
77430;SDS011;66498;48.564;19.272;2023-06-22T02:58:23;26.55;;;14.25;;
77430;SDS011;66498;48.564;19.272;2023-06-22T03:00:49;20.95;;;13.45;;
77430;SDS011;66498;48.564;19.272;2023-06-22T03:03:18;20.60;;;13.05;;
77430;SDS011;66498;48.564;19.272;2023-06-22T03:05:44;19.58;;;13.00;;
77430;SDS011;66498;48.564;19.272;2023-06-22T03:08:10;20.33;;;13.93;;
77430;SDS011;66498;48.564;19.272;2023-06-22T03:10:35;18.70;;;14.35;;
77430;SDS011;66498;48.564;19.272;2023-06-22T03:13:00;22.23;;;13.93;;
77430;SDS011;66498;48.564;19.272;2023-06-22T03:15:26;25.10;;;15.13;;
77430;SDS011;66498;48.564;19.272;2023-06-22T03:17:54;25.38;;;15.75;;
77430;SDS011;66498;48.564;19.272;2023-06-22T03:20:20;22.02;;;15.10;;
77430;SDS011;66498;48.564;19.272;2023-06-22T03:22:45;23.38;;;16.25;;
77430;SDS011;66498;48.564;19.272;2023-06-22T03:25:11;19.75;;;14.07;;
77430;SDS011;66498;48.564;19.272;2023-06-22T03:27:40;22.52;;;15.88;;
77430;SDS011;66498;48.564;19.272;2023-06-22T03:30:07;22.17;;;15.02;;
77430;SDS011;66498;48.564;19.272;2023-06-22T03:32:35;20.38;;;15.02;;
77430;SDS011;66498;48.564;19.272;2023-06-22T03:35:01;21.15;;;14.70;;
77430;SDS011;66498;48.564;19.272;2023-06-22T03:37:27;23.98;;;15.55;;
77430;SDS011;66498;48.564;19.272;2023-06-22T03:39:53;27.40;;;17.02;;
77430;SDS011;66498;48.564;19.272;2023-06-22T03:42:19;25.50;;;17.08;;
77430;SDS011;66498;48.564;19.272;2023-06-22T03:44:44;23.50;;;17.70;;
77430;SDS011;66498;48.564;19.272;2023-06-22T03:47:10;27.42;;;18.45;;
77430;SDS011;66498;48.564;19.272;2023-06-22T03:49:35;30.35;;;20.08;;
77430;SDS011;66498;48.564;19.272;2023-06-22T03:52:01;28.15;;;19.70;;
77430;SDS011;66498;48.564;19.272;2023-06-22T03:54:28;26.52;;;19.02;;
77430;SDS011;66498;48.564;19.272;2023-06-22T03:56:56;27.08;;;18.80;;
77430;SDS011;66498;48.564;19.272;2023-06-22T03:59:22;28.75;;;16.88;;
77430;SDS011;66498;48.564;19.272;2023-06-22T04:01:48;22.05;;;16.25;;
77430;SDS011;66498;48.564;19.272;2023-06-22T04:04:13;24.98;;;16.58;;
77430;SDS011;66498;48.564;19.272;2023-06-22T04:06:39;25.35;;;17.20;;
77430;SDS011;66498;48.564;19.272;2023-06-22T04:09:07;23.52;;;16.75;;
77430;SDS011;66498;48.564;19.272;2023-06-22T04:11:33;33.42;;;21.70;;
77430;SDS011;66498;48.564;19.272;2023-06-22T04:13:59;48.70;;;25.13;;
77430;SDS011;66498;48.564;19.272;2023-06-22T04:16:24;49.92;;;25.55;;
77430;SDS011;66498;48.564;19.272;2023-06-22T04:18:50;59.33;;;28.08;;
77430;SDS011;66498;48.564;19.272;2023-06-22T04:21:16;53.92;;;27.77;;
77430;SDS011;66498;48.564;19.272;2023-06-22T04:23:41;53.45;;;26.02;;
77430;SDS011;66498;48.564;19.272;2023-06-22T04:26:08;52.42;;;26.38;;
77430;SDS011;66498;48.564;19.272;2023-06-22T04:28:33;48.35;;;26.50;;
77430;SDS011;66498;48.564;19.272;2023-06-22T04:31:03;47.17;;;25.77;;
77430;SDS011;66498;48.564;19.272;2023-06-22T04:33:29;40.30;;;23.40;;
77430;SDS011;66498;48.564;19.272;2023-06-22T04:35:55;40.90;;;23.60;;
77430;SDS011;66498;48.564;19.272;2023-06-22T04:38:23;47.58;;;23.83;;
77430;SDS011;66498;48.564;19.272;2023-06-22T04:40:50;41.55;;;26.35;;
77430;SDS011;66498;48.564;19.272;2023-06-22T04:43:15;36.80;;;24.00;;
77430;SDS011;66498;48.564;19.272;2023-06-22T04:45:41;36.35;;;23.92;;
77430;SDS011;66498;48.564;19.272;2023-06-22T04:48:07;34.03;;;22.85;;
77430;SDS011;66498;48.564;19.272;2023-06-22T04:50:43;33.63;;;20.60;;
77430;SDS011;66498;48.564;19.272;2023-06-22T04:53:12;27.42;;;19.52;;
77430;SDS011;66498;48.564;19.272;2023-06-22T04:55:42;31.60;;;20.27;;
77430;SDS011;66498;48.564;19.272;2023-06-22T04:58:10;27.83;;;19.67;;
77430;SDS011;66498;48.564;19.272;2023-06-22T05:00:38;30.50;;;19.70;;
77430;SDS011;66498;48.564;19.272;2023-06-22T05:03:03;33.15;;;20.52;;
77430;SDS011;66498;48.564;19.272;2023-06-22T05:05:31;23.20;;;18.08;;
77430;SDS011;66498;48.564;19.272;2023-06-22T05:07:57;29.75;;;18.27;;
77430;SDS011;66498;48.564;19.272;2023-06-22T05:10:25;25.15;;;17.85;;
77430;SDS011;66498;48.564;19.272;2023-06-22T05:12:51;24.00;;;17.20;;
77430;SDS011;66498;48.564;19.272;2023-06-22T05:15:16;26.27;;;17.60;;
77430;SDS011;66498;48.564;19.272;2023-06-22T05:17:44;25.95;;;16.63;;
77430;SDS011;66498;48.564;19.272;2023-06-22T05:20:10;25.33;;;17.55;;
77430;SDS011;66498;48.564;19.272;2023-06-22T05:22:37;22.95;;;17.08;;
77430;SDS011;66498;48.564;19.272;2023-06-22T05:25:05;22.40;;;17.17;;
77430;SDS011;66498;48.564;19.272;2023-06-22T05:27:33;27.38;;;17.83;;
77430;SDS011;66498;48.564;19.272;2023-06-22T05:29:58;26.70;;;18.48;;
77430;SDS011;66498;48.564;19.272;2023-06-22T05:32:23;24.92;;;17.15;;
77430;SDS011;66498;48.564;19.272;2023-06-22T05:34:49;25.33;;;17.60;;
77430;SDS011;66498;48.564;19.272;2023-06-22T05:37:14;32.45;;;20.90;;
77430;SDS011;66498;48.564;19.272;2023-06-22T05:39:40;35.83;;;24.45;;
77430;SDS011;66498;48.564;19.272;2023-06-22T05:42:05;32.55;;;23.33;;
77430;SDS011;66498;48.564;19.272;2023-06-22T05:44:32;34.60;;;22.77;;
77430;SDS011;66498;48.564;19.272;2023-06-22T05:46:58;34.47;;;23.20;;
77430;SDS011;66498;48.564;19.272;2023-06-22T05:49:24;36.78;;;24.95;;
77430;SDS011;66498;48.564;19.272;2023-06-22T05:51:54;37.65;;;25.00;;
77430;SDS011;66498;48.564;19.272;2023-06-22T05:54:20;40.13;;;25.67;;
77430;SDS011;66498;48.564;19.272;2023-06-22T05:56:46;35.60;;;25.85;;
77430;SDS011;66498;48.564;19.272;2023-06-22T05:59:11;39.70;;;26.20;;
77430;SDS011;66498;48.564;19.272;2023-06-22T06:01:37;29.60;;;22.73;;
77430;SDS011;66498;48.564;19.272;2023-06-22T06:04:03;30.52;;;22.20;;
77430;SDS011;66498;48.564;19.272;2023-06-22T06:06:29;30.17;;;22.83;;
77430;SDS011;66498;48.564;19.272;2023-06-22T06:08:54;33.95;;;23.13;;
77430;SDS011;66498;48.564;19.272;2023-06-22T06:11:21;35.17;;;25.40;;
77430;SDS011;66498;48.564;19.272;2023-06-22T06:13:46;32.00;;;24.08;;
77430;SDS011;66498;48.564;19.272;2023-06-22T06:16:12;30.30;;;23.02;;
77430;SDS011;66498;48.564;19.272;2023-06-22T06:18:37;35.42;;;25.15;;
77430;SDS011;66498;48.564;19.272;2023-06-22T06:21:03;32.67;;;24.80;;
77430;SDS011;66498;48.564;19.272;2023-06-22T06:23:28;34.80;;;23.33;;
77430;SDS011;66498;48.564;19.272;2023-06-22T06:25:54;28.17;;;23.17;;
77430;SDS011;66498;48.564;19.272;2023-06-22T06:28:19;30.17;;;23.08;;
77430;SDS011;66498;48.564;19.272;2023-06-22T06:30:45;29.38;;;21.20;;
77430;SDS011;66498;48.564;19.272;2023-06-22T06:33:12;27.30;;;21.35;;
77430;SDS011;66498;48.564;19.272;2023-06-22T06:35:37;25.20;;;18.83;;
77430;SDS011;66498;48.564;19.272;2023-06-22T06:38:03;27.27;;;20.40;;
77430;SDS011;66498;48.564;19.272;2023-06-22T06:40:28;24.30;;;18.80;;
77430;SDS011;66498;48.564;19.272;2023-06-22T06:42:54;21.48;;;17.23;;
77430;SDS011;66498;48.564;19.272;2023-06-22T06:45:20;21.83;;;16.23;;
77430;SDS011;66498;48.564;19.272;2023-06-22T06:47:47;23.38;;;17.13;;
77430;SDS011;66498;48.564;19.272;2023-06-22T06:50:13;22.33;;;16.10;;
77430;SDS011;66498;48.564;19.272;2023-06-22T06:52:39;22.63;;;16.65;;
77430;SDS011;66498;48.564;19.272;2023-06-22T06:55:05;21.98;;;15.98;;
77430;SDS011;66498;48.564;19.272;2023-06-22T06:57:33;22.85;;;16.23;;
77430;SDS011;66498;48.564;19.272;2023-06-22T06:59:59;20.33;;;15.30;;
77430;SDS011;66498;48.564;19.272;2023-06-22T07:02:25;18.35;;;15.40;;
77430;SDS011;66498;48.564;19.272;2023-06-22T07:04:52;19.23;;;15.10;;
77430;SDS011;66498;48.564;19.272;2023-06-22T07:07:20;21.77;;;14.40;;
77430;SDS011;66498;48.564;19.272;2023-06-22T07:09:46;17.55;;;12.88;;
77430;SDS011;66498;48.564;19.272;2023-06-22T07:12:12;21.85;;;14.50;;
77430;SDS011;66498;48.564;19.272;2023-06-22T07:14:37;17.58;;;14.88;;
77430;SDS011;66498;48.564;19.272;2023-06-22T07:17:03;19.05;;;14.70;;
77430;SDS011;66498;48.564;19.272;2023-06-22T07:19:29;20.02;;;15.70;;
77430;SDS011;66498;48.564;19.272;2023-06-22T07:21:55;23.45;;;16.40;;
77430;SDS011;66498;48.564;19.272;2023-06-22T07:24:20;21.83;;;16.42;;
77430;SDS011;66498;48.564;19.272;2023-06-22T07:26:47;21.52;;;16.08;;
77430;SDS011;66498;48.564;19.272;2023-06-22T07:29:14;23.48;;;16.60;;
77430;SDS011;66498;48.564;19.272;2023-06-22T07:31:43;17.23;;;15.40;;
77430;SDS011;66498;48.564;19.272;2023-06-22T07:34:09;21.63;;;15.73;;
77430;SDS011;66498;48.564;19.272;2023-06-22T07:36:35;20.90;;;15.45;;
77430;SDS011;66498;48.564;19.272;2023-06-22T07:39:01;22.35;;;16.52;;
77430;SDS011;66498;48.564;19.272;2023-06-22T07:41:28;23.35;;;16.10;;
77430;SDS011;66498;48.564;19.272;2023-06-22T07:43:53;24.00;;;16.45;;
77430;SDS011;66498;48.564;19.272;2023-06-22T07:46:19;21.75;;;15.48;;
77430;SDS011;66498;48.564;19.272;2023-06-22T07:48:45;23.33;;;15.95;;
77430;SDS011;66498;48.564;19.272;2023-06-22T07:51:10;23.92;;;15.95;;
77430;SDS011;66498;48.564;19.272;2023-06-22T07:53:39;21.35;;;16.95;;
77430;SDS011;66498;48.564;19.272;2023-06-22T07:56:11;21.70;;;16.08;;
77430;SDS011;66498;48.564;19.272;2023-06-22T07:58:37;21.13;;;15.07;;
77430;SDS011;66498;48.564;19.272;2023-06-22T08:01:03;21.30;;;15.50;;
77430;SDS011;66498;48.564;19.272;2023-06-22T08:03:28;18.10;;;15.13;;
77430;SDS011;66498;48.564;19.272;2023-06-22T08:05:54;19.67;;;15.18;;
77430;SDS011;66498;48.564;19.272;2023-06-22T08:08:20;26.05;;;15.48;;
77430;SDS011;66498;48.564;19.272;2023-06-22T08:10:45;17.63;;;14.60;;
77430;SDS011;66498;48.564;19.272;2023-06-22T08:13:11;20.63;;;15.70;;
77430;SDS011;66498;48.564;19.272;2023-06-22T08:15:36;21.25;;;14.15;;
77430;SDS011;66498;48.564;19.272;2023-06-22T08:18:02;19.10;;;12.90;;
77430;SDS011;66498;48.564;19.272;2023-06-22T08:20:27;18.02;;;12.00;;
77430;SDS011;66498;48.564;19.272;2023-06-22T08:22:53;19.35;;;12.73;;
77430;SDS011;66498;48.564;19.272;2023-06-22T08:25:20;18.05;;;11.57;;
77430;SDS011;66498;48.564;19.272;2023-06-22T08:27:46;16.10;;;10.38;;
77430;SDS011;66498;48.564;19.272;2023-06-22T08:30:15;17.73;;;9.57;;
77430;SDS011;66498;48.564;19.272;2023-06-22T08:32:40;14.10;;;11.10;;
77430;SDS011;66498;48.564;19.272;2023-06-22T08:35:06;18.00;;;10.75;;
77430;SDS011;66498;48.564;19.272;2023-06-22T08:37:34;13.30;;;9.73;;
77430;SDS011;66498;48.564;19.272;2023-06-22T08:40:01;12.90;;;8.40;;
77430;SDS011;66498;48.564;19.272;2023-06-22T08:42:31;14.05;;;8.18;;
77430;SDS011;66498;48.564;19.272;2023-06-22T08:44:56;14.50;;;8.57;;
77430;SDS011;66498;48.564;19.272;2023-06-22T08:47:22;13.13;;;8.20;;
77430;SDS011;66498;48.564;19.272;2023-06-22T08:49:48;16.38;;;8.60;;
77430;SDS011;66498;48.564;19.272;2023-06-22T08:52:14;13.02;;;8.13;;
77430;SDS011;66498;48.564;19.272;2023-06-22T08:54:40;17.10;;;8.38;;
77430;SDS011;66498;48.564;19.272;2023-06-22T08:57:05;17.27;;;8.35;;
77430;SDS011;66498;48.564;19.272;2023-06-22T08:59:31;14.15;;;8.32;;
77430;SDS011;66498;48.564;19.272;2023-06-22T09:01:57;13.63;;;7.75;;
77430;SDS011;66498;48.564;19.272;2023-06-22T09:04:22;14.35;;;7.90;;
77430;SDS011;66498;48.564;19.272;2023-06-22T09:06:48;10.10;;;7.20;;
77430;SDS011;66498;48.564;19.272;2023-06-22T09:09:15;13.18;;;7.40;;
77430;SDS011;66498;48.564;19.272;2023-06-22T09:11:41;14.02;;;7.75;;
77430;SDS011;66498;48.564;19.272;2023-06-22T09:14:08;12.18;;;7.32;;
77430;SDS011;66498;48.564;19.272;2023-06-22T09:16:34;11.52;;;7.03;;
77430;SDS011;66498;48.564;19.272;2023-06-22T09:19:00;13.93;;;7.03;;
77430;SDS011;66498;48.564;19.272;2023-06-22T09:21:25;11.02;;;7.30;;
77430;SDS011;66498;48.564;19.272;2023-06-22T09:23:51;12.23;;;7.28;;
77430;SDS011;66498;48.564;19.272;2023-06-22T09:26:17;13.02;;;7.53;;
77430;SDS011;66498;48.564;19.272;2023-06-22T09:28:43;11.02;;;7.40;;
77430;SDS011;66498;48.564;19.272;2023-06-22T09:31:09;11.77;;;6.57;;
77430;SDS011;66498;48.564;19.272;2023-06-22T09:33:35;11.88;;;6.97;;
77430;SDS011;66498;48.564;19.272;2023-06-22T09:36:01;11.45;;;7.53;;
77430;SDS011;66498;48.564;19.272;2023-06-22T09:38:26;13.40;;;7.18;;
77430;SDS011;66498;48.564;19.272;2023-06-22T09:40:52;12.20;;;7.40;;
77430;SDS011;66498;48.564;19.272;2023-06-22T09:43:17;12.30;;;6.93;;
77430;SDS011;66498;48.564;19.272;2023-06-22T09:45:43;11.20;;;7.65;;
77430;SDS011;66498;48.564;19.272;2023-06-22T09:48:08;12.45;;;7.10;;
77430;SDS011;66498;48.564;19.272;2023-06-22T09:50:37;10.95;;;7.40;;
77430;SDS011;66498;48.564;19.272;2023-06-22T09:53:02;12.98;;;7.55;;
77430;SDS011;66498;48.564;19.272;2023-06-22T09:55:28;11.40;;;7.18;;
77430;SDS011;66498;48.564;19.272;2023-06-22T09:57:54;12.30;;;7.57;;
77430;SDS011;66498;48.564;19.272;2023-06-22T10:00:22;12.02;;;7.78;;
77430;SDS011;66498;48.564;19.272;2023-06-22T10:02:47;11.50;;;7.70;;
77430;SDS011;66498;48.564;19.272;2023-06-22T10:05:13;13.88;;;7.93;;
77430;SDS011;66498;48.564;19.272;2023-06-22T10:07:39;13.45;;;7.95;;
77430;SDS011;66498;48.564;19.272;2023-06-22T10:10:07;11.52;;;7.90;;
77430;SDS011;66498;48.564;19.272;2023-06-22T10:12:34;12.73;;;8.20;;
77430;SDS011;66498;48.564;19.272;2023-06-22T10:14:59;11.93;;;7.65;;
77430;SDS011;66498;48.564;19.272;2023-06-22T10:17:25;9.98;;;8.05;;
77430;SDS011;66498;48.564;19.272;2023-06-22T10:19:51;11.65;;;8.20;;
77430;SDS011;66498;48.564;19.272;2023-06-22T10:22:16;12.05;;;8.00;;
77430;SDS011;66498;48.564;19.272;2023-06-22T10:24:42;10.73;;;8.43;;
77430;SDS011;66498;48.564;19.272;2023-06-22T10:27:10;13.52;;;8.45;;
77430;SDS011;66498;48.564;19.272;2023-06-22T10:29:36;11.80;;;8.48;;
77430;SDS011;66498;48.564;19.272;2023-06-22T10:32:01;14.32;;;8.63;;
77430;SDS011;66498;48.564;19.272;2023-06-22T10:34:27;10.40;;;8.57;;
77430;SDS011;66498;48.564;19.272;2023-06-22T10:36:52;12.10;;;8.82;;
77430;SDS011;66498;48.564;19.272;2023-06-22T10:39:18;12.05;;;9.23;;
77430;SDS011;66498;48.564;19.272;2023-06-22T10:41:44;15.50;;;9.35;;
77430;SDS011;66498;48.564;19.272;2023-06-22T10:44:09;10.40;;;8.88;;
77430;SDS011;66498;48.564;19.272;2023-06-22T10:46:35;14.80;;;9.32;;
77430;SDS011;66498;48.564;19.272;2023-06-22T10:49:01;10.68;;;9.20;;
77430;SDS011;66498;48.564;19.272;2023-06-22T10:51:27;11.63;;;9.90;;
77430;SDS011;66498;48.564;19.272;2023-06-22T10:53:53;11.65;;;9.38;;
77430;SDS011;66498;48.564;19.272;2023-06-22T10:56:18;12.35;;;9.63;;
77430;SDS011;66498;48.564;19.272;2023-06-22T10:58:44;11.88;;;9.73;;
77430;SDS011;66498;48.564;19.272;2023-06-22T11:01:10;12.00;;;9.25;;
77430;SDS011;66498;48.564;19.272;2023-06-22T11:03:36;12.30;;;8.70;;
77430;SDS011;66498;48.564;19.272;2023-06-22T11:06:01;15.43;;;9.05;;
77430;SDS011;66498;48.564;19.272;2023-06-22T11:08:27;9.93;;;8.48;;
77430;SDS011;66498;48.564;19.272;2023-06-22T11:10:52;10.15;;;8.82;;
77430;SDS011;66498;48.564;19.272;2023-06-22T11:13:18;10.63;;;9.07;;
77430;SDS011;66498;48.564;19.272;2023-06-22T11:15:43;10.35;;;8.25;;
77430;SDS011;66498;48.564;19.272;2023-06-22T11:18:09;11.23;;;9.10;;
77430;SDS011;66498;48.564;19.272;2023-06-22T11:20:34;11.88;;;8.65;;
77430;SDS011;66498;48.564;19.272;2023-06-22T11:23:04;10.80;;;8.55;;
77430;SDS011;66498;48.564;19.272;2023-06-22T11:25:32;10.13;;;8.95;;
77430;SDS011;66498;48.564;19.272;2023-06-22T11:28:03;10.32;;;8.80;;
77430;SDS011;66498;48.564;19.272;2023-06-22T11:30:28;11.23;;;9.57;;
77430;SDS011;66498;48.564;19.272;2023-06-22T11:32:54;12.73;;;8.85;;
77430;SDS011;66498;48.564;19.272;2023-06-22T11:35:19;9.85;;;8.85;;
77430;SDS011;66498;48.564;19.272;2023-06-22T11:37:45;11.38;;;9.38;;
77430;SDS011;66498;48.564;19.272;2023-06-22T11:40:10;13.07;;;9.20;;
77430;SDS011;66498;48.564;19.272;2023-06-22T11:42:36;10.95;;;9.23;;
77430;SDS011;66498;48.564;19.272;2023-06-22T11:45:02;11.50;;;9.02;;
77430;SDS011;66498;48.564;19.272;2023-06-22T11:47:30;10.57;;;8.70;;
77430;SDS011;66498;48.564;19.272;2023-06-22T11:49:56;12.82;;;8.52;;
77430;SDS011;66498;48.564;19.272;2023-06-22T11:52:21;10.13;;;8.75;;
77430;SDS011;66498;48.564;19.272;2023-06-22T11:54:47;10.15;;;8.48;;
77430;SDS011;66498;48.564;19.272;2023-06-22T11:57:12;11.95;;;8.88;;
77430;SDS011;66498;48.564;19.272;2023-06-22T11:59:38;12.38;;;8.85;;
77430;SDS011;66498;48.564;19.272;2023-06-22T12:02:03;12.50;;;8.80;;
77430;SDS011;66498;48.564;19.272;2023-06-22T12:04:30;10.50;;;8.77;;
77430;SDS011;66498;48.564;19.272;2023-06-22T12:06:56;11.10;;;9.30;;
77430;SDS011;66498;48.564;19.272;2023-06-22T12:09:21;9.40;;;8.40;;
77430;SDS011;66498;48.564;19.272;2023-06-22T12:11:47;12.73;;;9.05;;
77430;SDS011;66498;48.564;19.272;2023-06-22T12:14:12;10.48;;;8.65;;
77430;SDS011;66498;48.564;19.272;2023-06-22T12:16:38;12.32;;;9.10;;
77430;SDS011;66498;48.564;19.272;2023-06-22T12:19:03;11.50;;;9.32;;
77430;SDS011;66498;48.564;19.272;2023-06-22T12:21:29;9.98;;;8.55;;
77430;SDS011;66498;48.564;19.272;2023-06-22T12:23:54;11.05;;;8.90;;
77430;SDS011;66498;48.564;19.272;2023-06-22T12:26:20;13.82;;;9.05;;
77430;SDS011;66498;48.564;19.272;2023-06-22T12:28:45;10.93;;;9.05;;
77430;SDS011;66498;48.564;19.272;2023-06-22T12:31:11;16.25;;;9.65;;
77430;SDS011;66498;48.564;19.272;2023-06-22T12:33:36;9.98;;;8.93;;
77430;SDS011;66498;48.564;19.272;2023-06-22T12:36:02;9.93;;;8.93;;
77430;SDS011;66498;48.564;19.272;2023-06-22T12:38:28;12.68;;;8.95;;
77430;SDS011;66498;48.564;19.272;2023-06-22T12:40:53;10.65;;;9.10;;
77430;SDS011;66498;48.564;19.272;2023-06-22T12:43:19;14.35;;;9.18;;
77430;SDS011;66498;48.564;19.272;2023-06-22T12:45:45;9.85;;;8.77;;
77430;SDS011;66498;48.564;19.272;2023-06-22T12:48:10;13.73;;;10.25;;
77430;SDS011;66498;48.564;19.272;2023-06-22T12:50:40;11.05;;;9.43;;
77430;SDS011;66498;48.564;19.272;2023-06-22T12:53:09;11.43;;;9.02;;
77430;SDS011;66498;48.564;19.272;2023-06-22T12:55:43;11.15;;;9.45;;
77430;SDS011;66498;48.564;19.272;2023-06-22T12:58:09;11.32;;;9.05;;
77430;SDS011;66498;48.564;19.272;2023-06-22T13:00:34;12.90;;;9.02;;
77430;SDS011;66498;48.564;19.272;2023-06-22T13:03:00;11.00;;;9.90;;
77430;SDS011;66498;48.564;19.272;2023-06-22T13:05:25;10.30;;;9.20;;
77430;SDS011;66498;48.564;19.272;2023-06-22T13:07:54;14.32;;;9.43;;
77430;SDS011;66498;48.564;19.272;2023-06-22T13:10:19;11.93;;;9.35;;
77430;SDS011;66498;48.564;19.272;2023-06-22T13:12:44;10.75;;;8.55;;
77430;SDS011;66498;48.564;19.272;2023-06-22T13:15:10;12.25;;;9.00;;
77430;SDS011;66498;48.564;19.272;2023-06-22T13:17:35;12.35;;;9.02;;
77430;SDS011;66498;48.564;19.272;2023-06-22T13:20:01;13.90;;;8.77;;
77430;SDS011;66498;48.564;19.272;2023-06-22T13:22:33;11.80;;;9.82;;
77430;SDS011;66498;48.564;19.272;2023-06-22T13:25:05;12.18;;;8.90;;
77430;SDS011;66498;48.564;19.272;2023-06-22T13:27:31;11.70;;;8.88;;
77430;SDS011;66498;48.564;19.272;2023-06-22T13:29:57;10.73;;;8.52;;
77430;SDS011;66498;48.564;19.272;2023-06-22T13:32:22;11.13;;;8.25;;
77430;SDS011;66498;48.564;19.272;2023-06-22T13:34:48;12.63;;;8.45;;
77430;SDS011;66498;48.564;19.272;2023-06-22T13:37:13;12.60;;;8.68;;
77430;SDS011;66498;48.564;19.272;2023-06-22T13:39:39;13.23;;;8.75;;
77430;SDS011;66498;48.564;19.272;2023-06-22T13:42:04;12.88;;;9.23;;
77430;SDS011;66498;48.564;19.272;2023-06-22T13:44:30;10.75;;;9.05;;
77430;SDS011;66498;48.564;19.272;2023-06-22T13:46:56;10.88;;;9.27;;
77430;SDS011;66498;48.564;19.272;2023-06-22T13:49:21;10.32;;;9.32;;
77430;SDS011;66498;48.564;19.272;2023-06-22T13:51:47;12.00;;;8.60;;
77430;SDS011;66498;48.564;19.272;2023-06-22T13:54:14;13.07;;;9.48;;
77430;SDS011;66498;48.564;19.272;2023-06-22T13:56:39;12.93;;;9.45;;
77430;SDS011;66498;48.564;19.272;2023-06-22T13:59:05;10.70;;;9.45;;
77430;SDS011;66498;48.564;19.272;2023-06-22T14:01:34;11.45;;;10.05;;
77430;SDS011;66498;48.564;19.272;2023-06-22T14:04:01;11.13;;;9.60;;
77430;SDS011;66498;48.564;19.272;2023-06-22T14:06:32;11.43;;;9.32;;
77430;SDS011;66498;48.564;19.272;2023-06-22T14:08:57;10.60;;;9.50;;
77430;SDS011;66498;48.564;19.272;2023-06-22T14:11:24;10.80;;;9.20;;
77430;SDS011;66498;48.564;19.272;2023-06-22T14:13:50;14.00;;;9.93;;
77430;SDS011;66498;48.564;19.272;2023-06-22T14:16:15;11.98;;;10.02;;
77430;SDS011;66498;48.564;19.272;2023-06-22T14:18:41;12.73;;;9.65;;